createdAt,value
2023-04-05T00:04:24.479Z,9.77
2023-04-05T00:06:54.870Z,9.90
2023-04-05T00:09:24.071Z,10.35
2023-04-05T00:11:53.320Z,11.05
2023-04-05T00:14:22.641Z,10.55
2023-04-05T00:16:52.196Z,10.38
2023-04-05T00:19:23.363Z,13.15
2023-04-05T00:21:54.757Z,10.80
2023-04-05T00:24:24.452Z,9.88
2023-04-05T00:26:53.627Z,10.13
2023-04-05T00:29:22.854Z,11.20
2023-04-05T00:31:52.255Z,12.35
2023-04-05T00:34:21.437Z,11.43
2023-04-05T00:36:51.031Z,9.93
2023-04-05T00:39:21.778Z,10.68
2023-04-05T00:41:51.142Z,11.43
2023-04-05T00:44:20.496Z,11.13
2023-04-05T00:46:50.153Z,11.70
2023-04-05T00:49:19.762Z,9.73
2023-04-05T00:51:49.532Z,10.85
2023-04-05T00:54:20.567Z,11.50
2023-04-05T00:56:53.088Z,13.65
2023-04-05T00:59:22.548Z,16.58
2023-04-05T01:01:56.337Z,13.85
2023-04-05T01:04:27.733Z,15.40
2023-04-05T01:07:07.138Z,15.02
2023-04-05T01:09:44.579Z,15.55
2023-04-05T01:12:20.952Z,14.95
2023-04-05T01:14:51.329Z,14.95
2023-04-05T01:17:22.247Z,14.82
2023-04-05T01:19:53.586Z,18.00
2023-04-05T01:22:42.142Z,16.15
2023-04-05T01:25:30.896Z,17.70
2023-04-05T01:28:24.706Z,16.33
2023-04-05T01:30:57.410Z,15.82
2023-04-05T01:33:27.965Z,16.73
2023-04-05T01:36:00.323Z,17.42
2023-04-05T01:38:30.271Z,16.35
2023-04-05T01:40:59.799Z,17.20
2023-04-05T01:43:28.926Z,13.73
2023-04-05T01:45:59.425Z,18.13
2023-04-05T01:48:28.762Z,17.50
2023-04-05T01:50:58.112Z,16.92
2023-04-05T01:53:28.022Z,15.38
2023-04-05T01:56:01.372Z,16.23
2023-04-05T01:58:31.562Z,15.30
2023-04-05T02:01:02.213Z,15.55
2023-04-05T02:03:31.664Z,14.10
2023-04-05T02:06:01.574Z,17.33
2023-04-05T02:08:30.842Z,15.80
2023-04-05T02:11:00.199Z,17.35
2023-04-05T02:13:29.396Z,17.67
2023-04-05T02:16:00.137Z,15.60
2023-04-05T02:18:31.753Z,17.23
2023-04-05T02:21:04.699Z,18.40
2023-04-05T02:23:34.341Z,16.92
2023-04-05T02:26:03.588Z,16.60
2023-04-05T02:28:32.914Z,15.52
2023-04-05T02:31:02.340Z,16.40
2023-04-05T02:33:33.569Z,14.60
2023-04-05T02:36:06.573Z,16.90
2023-04-05T02:38:35.924Z,15.68
2023-04-05T02:41:05.695Z,16.10
2023-04-05T02:43:35.273Z,14.73
2023-04-05T02:46:04.521Z,16.48
2023-04-05T02:48:36.594Z,15.18
2023-04-05T02:51:06.825Z,16.35
2023-04-05T02:53:37.202Z,15.82
2023-04-05T02:56:13.657Z,15.40
2023-04-05T02:58:48.885Z,15.05
2023-04-05T03:01:22.774Z,15.63
2023-04-05T03:03:53.728Z,15.65
2023-04-05T03:06:22.936Z,15.48
2023-04-05T03:08:53.896Z,17.23
2023-04-05T03:11:26.641Z,15.88
2023-04-05T03:14:00.282Z,15.23
2023-04-05T03:16:46.833Z,16.90
2023-04-05T03:19:32.137Z,16.23
2023-04-05T03:22:12.122Z,16.20
2023-04-05T03:24:42.643Z,15.73
2023-04-05T03:27:15.227Z,16.90
2023-04-05T03:30:04.408Z,17.55
2023-04-05T03:32:38.953Z,17.27
2023-04-05T03:35:21.253Z,16.25
2023-04-05T03:37:51.394Z,12.18
2023-04-05T03:40:21.227Z,16.58
2023-04-05T03:42:51.462Z,15.93
2023-04-05T03:45:23.935Z,15.52
2023-04-05T03:47:55.337Z,15.80
2023-04-05T03:50:26.606Z,15.20
2023-04-05T03:52:56.028Z,16.33
2023-04-05T03:55:26.414Z,15.10
2023-04-05T03:57:56.087Z,15.68
2023-04-05T04:00:30.590Z,16.38
2023-04-05T04:03:18.000Z,16.92
2023-04-05T04:05:51.775Z,16.50
2023-04-05T04:08:22.561Z,15.25
2023-04-05T04:10:55.052Z,15.27
2023-04-05T04:13:27.049Z,16.55
2023-04-05T04:16:11.744Z,22.45
2023-04-05T04:19:06.731Z,14.40
2023-04-05T04:21:59.130Z,15.18
2023-04-05T04:24:37.378Z,15.68
2023-04-05T04:27:36.743Z,19.52
2023-04-05T04:30:35.891Z,25.95
2023-04-05T04:33:20.364Z,71.68
2023-04-05T04:36:26.716Z,49.42
2023-04-05T04:39:19.301Z,47.22
2023-04-05T04:42:10.725Z,24.70
2023-04-05T04:45:02.693Z,26.92
2023-04-05T04:47:53.723Z,16.50
2023-04-05T04:50:52.102Z,15.60
2023-04-05T04:53:23.991Z,15.13
2023-04-05T04:55:55.448Z,15.23
2023-04-05T04:58:24.718Z,16.27
2023-04-05T05:01:04.663Z,18.95
2023-04-05T05:03:36.817Z,18.33
2023-04-05T05:06:06.256Z,15.88
2023-04-05T05:08:37.384Z,15.73
2023-04-05T05:11:09.842Z,16.50
2023-04-05T05:13:38.824Z,15.98
2023-04-05T05:16:10.335Z,16.27
2023-04-05T05:18:41.589Z,14.77
2023-04-05T05:21:10.671Z,13.60
2023-04-05T05:23:40.382Z,14.38
2023-04-05T05:26:14.139Z,14.35
2023-04-05T05:28:43.449Z,13.30
2023-04-05T05:31:14.300Z,16.58
2023-04-05T05:33:45.996Z,16.90
2023-04-05T05:36:15.124Z,16.63
2023-04-05T05:38:44.392Z,19.73
2023-04-05T05:41:14.782Z,19.85
2023-04-05T05:43:43.893Z,20.13
2023-04-05T05:46:13.080Z,19.27
2023-04-05T05:48:42.928Z,23.13
2023-04-05T05:51:12.408Z,22.90
2023-04-05T05:53:42.203Z,22.75
2023-04-05T05:56:11.841Z,24.35
2023-04-05T05:58:42.669Z,19.25
2023-04-05T06:01:12.304Z,21.10
2023-04-05T06:03:41.719Z,18.50
2023-04-05T06:06:11.387Z,18.38
2023-04-05T06:08:40.945Z,17.55
2023-04-05T06:11:10.012Z,16.77
2023-04-05T06:13:39.162Z,18.23
2023-04-05T06:16:09.913Z,20.30
2023-04-05T06:18:38.976Z,18.38
2023-04-05T06:21:08.394Z,19.48
2023-04-05T06:23:37.544Z,18.35
2023-04-05T06:26:06.816Z,16.10
2023-04-05T06:28:35.861Z,18.30
2023-04-05T06:31:04.809Z,16.48
2023-04-05T06:33:36.616Z,18.85
2023-04-05T06:38:37.765Z,16.20
2023-04-05T06:41:06.979Z,16.42
2023-04-05T06:43:36.429Z,16.88
2023-04-05T06:46:09.222Z,19.85
2023-04-05T06:48:40.003Z,16.80
2023-04-05T06:51:09.217Z,18.45
2023-04-05T06:53:44.555Z,17.67
2023-04-05T06:56:13.983Z,17.15
2023-04-05T06:58:44.163Z,15.55
2023-04-05T07:01:13.328Z,14.50
2023-04-05T07:03:44.129Z,16.42
2023-04-05T07:06:14.191Z,15.98
2023-04-05T07:08:43.589Z,17.02
2023-04-05T07:11:17.002Z,27.35
2023-04-05T07:13:46.700Z,15.00
2023-04-05T07:16:18.182Z,23.30
2023-04-05T07:18:50.116Z,14.35
2023-04-05T07:21:19.354Z,12.07
2023-04-05T07:23:48.698Z,16.58
2023-04-05T07:26:17.794Z,12.68
2023-04-05T07:28:47.314Z,14.13
2023-04-05T07:31:17.384Z,12.73
2023-04-05T07:33:47.760Z,16.58
2023-04-05T07:36:18.792Z,9.55
2023-04-05T07:38:48.002Z,10.52
2023-04-05T07:41:20.052Z,10.02
2023-04-05T07:46:17.828Z,9.82
2023-04-05T07:48:48.688Z,10.18
2023-04-05T07:51:19.582Z,8.35
2023-04-05T07:53:48.900Z,11.55
2023-04-05T07:56:20.355Z,11.75
2023-04-05T07:58:51.650Z,8.75
2023-04-05T08:01:21.540Z,8.98
2023-04-05T08:03:51.133Z,8.85
2023-04-05T08:06:21.982Z,7.35
2023-04-05T08:08:51.375Z,9.13
2023-04-05T08:11:21.568Z,9.55
2023-04-05T08:13:51.096Z,7.95
2023-04-05T08:16:20.282Z,8.82
2023-04-05T08:18:49.561Z,8.65
2023-04-05T08:21:18.552Z,7.18
2023-04-05T08:23:50.056Z,8.60
2023-04-05T08:26:19.214Z,9.45
2023-04-05T08:28:48.586Z,8.60
2023-04-05T08:31:17.592Z,11.43
2023-04-05T08:33:46.702Z,7.43
2023-04-05T08:36:15.890Z,9.57
2023-04-05T08:38:44.963Z,9.27
2023-04-05T08:41:19.764Z,8.77
2023-04-05T08:43:59.024Z,8.95
2023-04-05T08:46:28.991Z,9.32
2023-04-05T08:48:59.204Z,10.70
2023-04-05T08:51:28.889Z,9.18
2023-04-05T08:53:58.332Z,9.52
2023-04-05T08:56:30.458Z,9.45
2023-04-05T08:59:03.451Z,10.48
2023-04-05T09:01:33.154Z,10.13
2023-04-05T09:04:03.384Z,11.30
2023-04-05T09:06:34.672Z,9.98
2023-04-05T09:09:07.499Z,10.73
2023-04-05T09:11:38.766Z,9.07
2023-04-05T09:14:09.194Z,11.35
2023-04-05T09:16:39.191Z,10.07
2023-04-05T09:19:08.609Z,11.55
2023-04-05T09:21:56.543Z,10.90
2023-04-05T09:24:33.153Z,9.90
2023-04-05T09:27:11.344Z,12.68
2023-04-05T09:29:41.837Z,10.57
2023-04-05T09:32:12.668Z,10.00
2023-04-05T09:34:42.618Z,11.80
2023-04-05T09:37:20.079Z,10.57
2023-04-05T09:39:50.834Z,10.13
2023-04-05T09:42:24.062Z,10.02
2023-04-05T09:44:54.371Z,10.85
2023-04-05T09:47:27.521Z,8.63
2023-04-05T09:50:00.381Z,10.63
2023-04-05T09:52:32.187Z,8.23
2023-04-05T09:55:03.000Z,8.82
2023-04-05T09:57:39.089Z,8.23
2023-04-05T10:00:19.313Z,11.23
2023-04-05T10:02:49.471Z,10.00
2023-04-05T10:05:27.583Z,37.63
2023-04-05T10:08:01.197Z,11.52
2023-04-05T10:10:32.051Z,9.30
2023-04-05T10:13:02.629Z,10.93
2023-04-05T10:15:32.981Z,9.38
2023-04-05T10:18:09.078Z,10.32
2023-04-05T10:20:42.371Z,11.00
2023-04-05T10:23:14.847Z,11.80
2023-04-05T10:25:53.033Z,9.07
2023-04-05T10:28:31.998Z,9.27
2023-04-05T10:31:04.389Z,11.38
2023-04-05T10:33:40.808Z,10.73
2023-04-05T10:36:16.419Z,9.88
2023-04-05T10:38:51.547Z,10.77
2023-04-05T10:41:21.703Z,18.08
2023-04-05T10:43:56.727Z,10.93
2023-04-05T10:46:26.309Z,9.77
2023-04-05T10:49:01.700Z,10.60
2023-04-05T10:51:31.953Z,9.35
2023-04-05T10:54:02.374Z,11.32
2023-04-05T10:56:34.206Z,8.68
2023-04-05T10:59:05.727Z,10.88
2023-04-05T11:01:38.942Z,10.07
2023-04-05T11:04:17.515Z,17.15
2023-04-05T11:06:48.223Z,9.50
2023-04-05T11:09:18.873Z,9.43
2023-04-05T11:11:49.545Z,10.30
2023-04-05T11:14:23.091Z,10.05
2023-04-05T11:16:56.785Z,10.90
2023-04-05T11:19:41.491Z,9.35
2023-04-05T11:22:11.137Z,11.85
2023-04-05T11:24:53.186Z,10.18
2023-04-05T11:27:28.127Z,10.88
2023-04-05T11:29:59.624Z,11.43
2023-04-05T11:32:41.148Z,10.77
2023-04-05T11:35:15.179Z,11.43
2023-04-05T11:37:58.105Z,10.52
2023-04-05T11:40:31.037Z,11.43
2023-04-05T11:43:02.071Z,12.32
2023-04-05T11:45:33.995Z,10.80
2023-04-05T11:48:06.411Z,12.13
2023-04-05T11:50:35.972Z,10.60
2023-04-05T11:53:12.113Z,13.95
2023-04-05T11:55:42.106Z,11.55
2023-04-05T11:58:19.200Z,11.80
2023-04-05T12:01:00.439Z,9.20
2023-04-05T12:03:30.385Z,10.60
2023-04-05T12:06:00.553Z,12.48
2023-04-05T12:08:40.840Z,10.20
2023-04-05T12:11:10.741Z,9.93
2023-04-05T12:13:40.355Z,9.77
2023-04-05T12:16:11.183Z,10.38
2023-04-05T12:18:40.436Z,7.43
2023-04-05T12:21:11.003Z,9.60
2023-04-05T12:23:40.763Z,10.77
2023-04-05T12:26:10.152Z,9.68
2023-04-05T12:28:52.360Z,9.70
2023-04-05T12:33:54.039Z,7.72
2023-04-05T12:36:29.036Z,8.38
2023-04-05T12:38:58.211Z,8.45
2023-04-05T12:41:34.150Z,8.05
2023-04-05T12:44:06.998Z,12.88
2023-04-05T12:46:43.142Z,9.48
2023-04-05T12:49:14.445Z,7.22
2023-04-05T12:51:46.644Z,8.88
2023-04-05T12:54:16.810Z,6.85
2023-04-05T12:56:46.286Z,7.22
2023-04-05T12:59:15.437Z,8.45
2023-04-05T13:01:47.040Z,8.55
2023-04-05T13:04:18.028Z,9.48
2023-04-05T13:06:48.029Z,8.32
2023-04-05T13:09:17.349Z,9.52
2023-04-05T13:11:46.737Z,10.18
2023-04-05T13:14:16.483Z,8.05
2023-04-05T13:16:45.777Z,9.50
2023-04-05T13:19:15.229Z,7.82
2023-04-05T13:21:48.893Z,8.90
2023-04-05T13:24:18.400Z,10.43
2023-04-05T13:26:47.499Z,9.50
2023-04-05T13:29:16.850Z,9.25
2023-04-05T13:31:46.059Z,9.82
2023-04-05T13:34:15.662Z,10.20
2023-04-05T13:36:45.141Z,9.50
2023-04-05T13:39:15.879Z,9.85
2023-04-05T13:41:45.020Z,9.68
2023-04-05T13:44:14.546Z,9.27
2023-04-05T13:46:43.997Z,9.13
2023-04-05T13:49:13.383Z,9.57
2023-04-05T13:51:42.844Z,9.18
2023-04-05T13:54:12.439Z,9.70
2023-04-05T13:56:43.241Z,8.68
2023-04-05T13:59:17.137Z,9.38
2023-04-05T14:01:46.632Z,8.93
2023-04-05T14:04:16.926Z,10.20
2023-04-05T14:06:46.920Z,9.93
2023-04-05T14:09:16.306Z,10.38
2023-04-05T14:11:46.920Z,9.07
2023-04-05T14:14:16.255Z,7.32
2023-04-05T14:16:46.100Z,9.90
2023-04-05T14:19:17.252Z,8.52
2023-04-05T14:21:47.283Z,8.77
2023-04-05T14:24:16.602Z,9.55
2023-04-05T14:26:49.750Z,8.55
2023-04-05T14:29:19.100Z,9.75
2023-04-05T14:31:52.590Z,9.95
2023-04-05T14:34:21.937Z,8.73
2023-04-05T14:36:51.393Z,10.00
2023-04-05T14:39:21.728Z,9.23
2023-04-05T14:41:54.324Z,9.02
2023-04-05T14:44:24.503Z,8.82
2023-04-05T14:46:54.307Z,10.23
2023-04-05T14:49:23.848Z,9.75
2023-04-05T14:54:24.806Z,8.52
2023-04-05T14:56:55.802Z,10.32
2023-04-05T14:59:28.348Z,11.25
2023-04-05T15:01:57.618Z,12.30
2023-04-05T15:04:27.906Z,10.55
2023-04-05T15:06:57.427Z,11.00
2023-04-05T15:09:26.724Z,10.18
2023-04-05T15:11:57.752Z,9.13
2023-04-05T15:14:32.080Z,9.15
2023-04-05T15:17:01.978Z,9.25
2023-04-05T15:19:31.653Z,8.48
2023-04-05T15:22:01.339Z,9.73
2023-04-05T15:24:30.648Z,8.75
2023-04-05T15:27:03.163Z,10.32
2023-04-05T15:29:32.837Z,11.35
2023-04-05T15:32:03.086Z,9.68
2023-04-05T15:34:32.486Z,9.02
2023-04-05T15:37:01.556Z,10.13
2023-04-05T15:39:31.093Z,8.43
2023-04-05T15:42:03.097Z,10.80
2023-04-05T15:44:33.117Z,10.10
2023-04-05T15:47:03.734Z,9.68
2023-04-05T15:49:32.943Z,8.68
2023-04-05T15:52:02.273Z,9.45
2023-04-05T15:54:31.331Z,8.45
2023-04-05T15:57:03.234Z,9.00
2023-04-05T15:59:35.419Z,9.27
2023-04-05T16:02:05.181Z,9.10
2023-04-05T16:04:34.776Z,8.85
2023-04-05T16:07:04.308Z,9.40
2023-04-05T16:09:49.416Z,9.52
2023-04-05T16:12:20.514Z,6.85
2023-04-05T16:14:49.690Z,19.40
2023-04-05T16:17:19.339Z,7.45
2023-04-05T16:19:52.067Z,7.97
2023-04-05T16:22:21.503Z,8.43
2023-04-05T16:24:50.857Z,7.43
2023-04-05T16:27:23.990Z,8.00
2023-04-05T16:29:54.065Z,10.02
2023-04-05T16:32:23.473Z,9.98
2023-04-05T16:34:55.729Z,8.18
2023-04-05T16:37:24.961Z,8.77
2023-04-05T16:39:54.289Z,12.93
2023-04-05T16:42:24.962Z,8.68
2023-04-05T16:44:54.336Z,8.18
2023-04-05T16:47:23.800Z,8.15
2023-04-05T16:49:53.561Z,10.90
2023-04-05T16:52:23.169Z,8.98
2023-04-05T16:54:52.579Z,8.35
2023-04-05T16:57:21.847Z,9.07
2023-04-05T16:59:52.738Z,9.60
2023-04-05T17:02:22.121Z,10.38
2023-04-05T17:04:53.128Z,9.75
2023-04-05T17:07:25.244Z,10.88
2023-04-05T17:09:54.652Z,10.93
2023-04-05T17:12:23.870Z,10.30
2023-04-05T17:14:55.839Z,9.55
2023-04-05T17:17:25.329Z,9.23
2023-04-05T17:19:54.601Z,10.18
2023-04-05T17:22:31.239Z,10.25
2023-04-05T17:25:03.264Z,11.35
2023-04-05T17:27:32.712Z,9.82
2023-04-05T17:30:03.594Z,11.80
2023-04-05T17:32:34.864Z,11.95
2023-04-05T17:35:05.110Z,10.95
2023-04-05T17:37:34.653Z,9.75
2023-04-05T17:40:03.703Z,10.90
2023-04-05T17:42:32.736Z,10.10
2023-04-05T17:45:06.067Z,11.23
2023-04-05T17:47:35.847Z,9.52
2023-04-05T17:50:05.489Z,8.88
2023-04-05T17:52:34.783Z,8.82
2023-04-05T17:55:03.986Z,10.25
2023-04-05T17:57:33.223Z,10.77
2023-04-05T18:00:04.123Z,13.35
2023-04-05T18:02:37.154Z,11.25
2023-04-05T18:05:06.663Z,12.05
2023-04-05T18:07:37.501Z,10.63
2023-04-05T18:10:07.751Z,12.47
2023-04-05T18:12:40.652Z,10.80
2023-04-05T18:15:12.642Z,15.23
2023-04-05T18:20:11.769Z,12.88
2023-04-05T18:22:41.164Z,12.68
2023-04-05T18:25:11.916Z,14.45
2023-04-05T18:27:42.479Z,14.07
2023-04-05T18:30:13.573Z,14.60
2023-04-05T18:32:42.843Z,14.98
2023-04-05T18:35:12.160Z,12.98
2023-04-05T18:37:41.463Z,12.57
2023-04-05T18:40:10.915Z,14.98
2023-04-05T18:42:40.072Z,14.15
2023-04-05T18:45:09.751Z,14.77
2023-04-05T18:47:40.427Z,15.07
2023-04-05T18:50:10.700Z,14.85
2023-04-05T18:52:40.097Z,14.30
2023-04-05T18:55:10.202Z,15.13
2023-04-05T18:57:41.517Z,14.20
2023-04-05T19:00:11.610Z,16.40
2023-04-05T19:02:44.431Z,15.18
2023-04-05T19:05:18.502Z,14.35
2023-04-05T19:07:48.933Z,16.70
2023-04-05T19:10:18.265Z,16.10
2023-04-05T19:12:48.027Z,16.35
2023-04-05T19:15:18.636Z,15.20
2023-04-05T19:17:53.620Z,16.08
2023-04-05T19:20:22.988Z,15.45
2023-04-05T19:22:53.483Z,16.13
2023-04-05T19:25:22.927Z,16.30
2023-04-05T19:27:53.204Z,15.98
2023-04-05T19:30:22.894Z,17.15
2023-04-05T19:32:56.825Z,17.05
2023-04-05T19:35:26.064Z,17.67
2023-04-05T19:37:55.489Z,16.95
2023-04-05T19:40:25.992Z,18.05
2023-04-05T19:42:56.581Z,16.65
2023-04-05T19:45:27.235Z,17.45
2023-04-05T19:47:58.804Z,18.67
2023-04-05T19:50:46.801Z,17.67
2023-04-05T19:53:31.098Z,17.27
2023-04-05T19:56:00.347Z,21.88
2023-04-05T19:58:29.758Z,17.10
2023-04-05T20:00:58.939Z,18.35
2023-04-05T20:03:31.480Z,19.65
2023-04-05T20:06:05.381Z,18.63
2023-04-05T20:08:36.820Z,18.75
2023-04-05T20:11:08.051Z,18.02
2023-04-05T20:13:43.040Z,18.77
2023-04-05T20:16:15.965Z,19.08
2023-04-05T20:18:50.310Z,19.48
2023-04-05T20:21:19.952Z,19.85
2023-04-05T20:23:49.911Z,19.30
2023-04-05T20:26:19.842Z,19.23
2023-04-05T20:28:54.594Z,18.95
2023-04-05T20:31:25.893Z,18.38
2023-04-05T20:33:57.224Z,19.00
2023-04-05T20:36:32.921Z,22.03
2023-04-05T20:39:03.238Z,21.95
2023-04-05T20:41:32.991Z,20.92
2023-04-05T20:44:02.698Z,19.05
2023-04-05T20:46:32.477Z,20.55
2023-04-05T20:49:03.143Z,23.13
2023-04-05T20:51:32.267Z,22.70
2023-04-05T20:54:02.241Z,20.90
2023-04-05T20:56:31.361Z,21.50
2023-04-05T20:59:00.470Z,21.90
2023-04-05T21:01:29.766Z,21.60
2023-04-05T21:03:59.033Z,21.50
2023-04-05T21:06:29.625Z,22.50
2023-04-05T21:08:59.068Z,22.95
2023-04-05T21:11:28.580Z,19.95
2023-04-05T21:13:58.011Z,21.98
2023-04-05T21:16:27.413Z,19.95
2023-04-05T21:18:57.009Z,21.35
2023-04-05T21:21:26.512Z,21.30
2023-04-05T21:24:00.801Z,23.63
2023-04-05T21:29:00.931Z,20.45
2023-04-05T21:31:30.490Z,22.13
2023-04-05T21:33:59.783Z,23.13
2023-04-05T21:36:29.497Z,23.45
2023-04-05T21:39:03.469Z,26.98
2023-04-05T21:41:33.001Z,25.50
2023-04-05T21:44:03.006Z,22.77
2023-04-05T21:46:33.890Z,23.65
2023-04-05T21:49:03.599Z,25.20
2023-04-05T21:51:32.785Z,23.58
2023-04-05T21:54:05.471Z,28.30
2023-04-05T21:56:38.313Z,25.30
2023-04-05T21:59:07.833Z,25.48
2023-04-05T22:01:37.580Z,26.10
2023-04-05T22:04:07.180Z,27.23
2023-04-05T22:06:40.646Z,24.95
2023-04-05T22:09:11.822Z,25.02
2023-04-05T22:11:42.956Z,24.17
2023-04-05T22:14:12.621Z,25.77
2023-04-05T22:16:42.519Z,26.23
2023-04-05T22:19:12.498Z,26.30
2023-04-05T22:21:42.116Z,26.13
2023-04-05T22:24:13.778Z,28.10
2023-04-05T22:26:43.656Z,23.92
2023-04-05T22:29:13.274Z,25.77
2023-04-05T22:31:42.707Z,26.38
2023-04-05T22:34:13.539Z,26.38
2023-04-05T22:36:43.219Z,24.23
2023-04-05T22:39:14.288Z,23.65
2023-04-05T22:41:44.312Z,23.77
2023-04-05T22:44:14.111Z,24.58
2023-04-05T22:46:43.681Z,21.88
2023-04-05T22:49:13.215Z,23.63
2023-04-05T22:51:43.152Z,23.40
2023-04-05T22:54:14.047Z,21.45
2023-04-05T22:56:43.865Z,20.63
2023-04-05T22:59:13.750Z,21.10
2023-04-05T23:01:43.405Z,22.20
2023-04-05T23:04:13.011Z,21.60
2023-04-05T23:06:42.385Z,19.33
2023-04-05T23:09:11.679Z,20.10
2023-04-05T23:11:43.790Z,19.48
2023-04-05T23:14:13.530Z,19.40
2023-04-05T23:16:43.119Z,20.45
2023-04-05T23:19:12.790Z,18.45
2023-04-05T23:21:41.851Z,18.83
2023-04-05T23:24:12.637Z,19.35
2023-04-05T23:26:43.488Z,19.10
2023-04-05T23:29:13.355Z,18.75
2023-04-05T23:31:45.693Z,17.70
2023-04-05T23:34:15.574Z,15.80
2023-04-05T23:36:48.067Z,16.85
2023-04-05T23:39:17.515Z,16.45
2023-04-05T23:41:48.580Z,16.80
2023-04-05T23:44:18.072Z,15.57
2023-04-05T23:46:47.490Z,15.57
2023-04-05T23:49:16.964Z,16.17
2023-04-05T23:51:46.639Z,14.93
2023-04-05T23:54:19.945Z,15.20
2023-04-05T23:56:51.236Z,15.07
2023-04-05T23:59:20.881Z,15.98
